Time;durP1;ratioP1;P1;durP2;ratioP2;P2;SDS_P1;SDS_P2;PMS_P1;PMS_P2;Temp;Humidity;BMP_temperature;BMP_pressure;BME280_temperature;BME280_humidity;BME280_pressure;Samples;Min_cycle;Max_cycle;Signal;HPM_P1;HPM_P2
2023/09/14 00:02:15;;;;;;;31.00;27.35;;;20.20;99.90;;;;;;4942938;29;20228;-85
2023/09/14 00:04:51;;;;;;;31.08;27.67;;;20.20;99.90;;;;;;4947899;29;20212;-84
2023/09/14 00:07:22;;;;;;;33.55;25.60;;;20.40;99.90;;;;;;4955962;28;20307;-84
2023/09/14 00:09:52;;;;;;;29.20;24.25;;;20.50;99.90;;;;;;4948021;29;20220;-84
2023/09/14 00:12:23;;;;;;;24.83;21.38;;;20.50;99.90;;;;;;4940377;29;20584;-84
2023/09/14 00:14:54;;;;;;;27.83;22.23;;;20.60;99.90;;;;;;4955883;29;20231;-85
2023/09/14 00:17:24;;;;;;;24.25;20.02;;;20.70;99.90;;;;;;4956158;28;20196;-84
2023/09/14 00:19:57;;;;;;;20.67;17.17;;;20.80;99.90;;;;;;4955502;29;20230;-85
2023/09/14 00:22:28;;;;;;;19.88;15.60;;;20.90;99.90;;;;;;4954483;29;20196;-85
2023/09/14 00:24:59;;;;;;;15.70;14.02;;;21.00;99.90;;;;;;4955484;29;20552;-85
2023/09/14 00:27:29;;;;;;;16.98;14.75;;;21.20;99.90;;;;;;4942579;29;20204;-85
2023/09/14 00:30:00;;;;;;;16.67;13.40;;;21.40;99.90;;;;;;4935811;29;20209;-84
2023/09/14 00:32:31;;;;;;;20.48;14.70;;;21.40;99.90;;;;;;4954952;29;20196;-85
2023/09/14 00:35:03;;;;;;;15.10;12.82;;;21.50;99.90;;;;;;4954784;29;20232;-86
2023/09/14 00:37:38;;;;;;;16.50;13.30;;;21.60;99.90;;;;;;4954811;29;20215;-85
2023/09/14 00:40:10;;;;;;;19.35;13.82;;;21.70;99.90;;;;;;4953586;29;20614;-85
2023/09/14 00:42:43;;;;;;;20.05;13.68;;;21.90;99.90;;;;;;4954599;29;20207;-85
2023/09/14 00:45:14;;;;;;;17.77;12.52;;;22.10;99.90;;;;;;4950444;28;20216;-84
2023/09/14 00:47:47;;;;;;;16.40;11.27;;;22.20;99.90;;;;;;4948672;29;20209;-84
2023/09/14 00:50:21;;;;;;;12.38;10.25;;;22.40;99.90;;;;;;4935611;29;20208;-85
2023/09/14 00:52:57;;;;;;;14.98;10.75;;;22.50;99.90;;;;;;4952360;29;20211;-85
2023/09/14 00:55:30;;;;;;;13.20;10.50;;;22.50;99.90;;;;;;4954155;29;20211;-85
2023/09/14 00:58:01;;;;;;;11.25;9.65;;;22.60;99.90;;;;;;4954590;29;20676;-84
2023/09/14 01:00:32;;;;;;;11.73;9.13;;;22.70;99.90;;;;;;4949306;29;20224;-85
2023/09/14 01:03:03;;;;;;;11.68;9.65;;;22.90;99.20;;;;;;4935614;29;20208;-85
2023/09/14 01:05:37;;;;;;;9.68;8.70;;;23.10;96.90;;;;;;4935581;29;20197;-85
2023/09/14 01:08:08;;;;;;;9.80;8.80;;;23.20;95.80;;;;;;4954640;28;20231;-85
2023/09/14 01:10:38;;;;;;;11.07;8.20;;;23.30;95.80;;;;;;4954195;28;20214;-85
2023/09/14 01:13:14;;;;;;;9.75;8.48;;;23.50;94.10;;;;;;4953716;29;20208;-86
2023/09/14 01:15:50;;;;;;;10.98;8.55;;;23.60;93.00;;;;;;4954394;29;20203;-85
2023/09/14 01:18:26;;;;;;;9.43;8.05;;;23.70;93.30;;;;;;4953683;29;20622;-86
2023/09/14 01:21:18;;;;;;;9.93;7.70;;;23.80;91.40;;;;;;4954113;29;20223;-85
2023/09/14 01:23:57;;;;;;;8.25;7.45;;;23.90;90.50;;;;;;4952978;29;20204;-85
2023/09/14 01:26:32;;;;;;;8.05;7.25;;;23.90;90.00;;;;;;4953961;29;20200;-86
2023/09/14 01:29:04;;;;;;;9.85;7.60;;;24.10;90.00;;;;;;4954095;29;20222;-86
2023/09/14 01:31:35;;;;;;;8.30;7.45;;;24.20;89.30;;;;;;4953967;29;20212;-86
2023/09/14 01:34:06;;;;;;;9.32;8.10;;;24.30;87.00;;;;;;4952519;29;20242;-85
2023/09/14 01:36:45;;;;;;;11.10;9.50;;;24.40;88.20;;;;;;4934875;29;20285;-86
2023/09/14 01:39:17;;;;;;;14.30;10.45;;;24.50;89.50;;;;;;4934550;29;20204;-85
2023/09/14 01:41:54;;;;;;;14.13;11.82;;;24.50;89.50;;;;;;4948888;29;20239;-85
2023/09/14 01:44:28;;;;;;;17.90;14.68;;;24.60;90.60;;;;;;4953790;29;20203;-86
2023/09/14 01:46:59;;;;;;;17.98;14.98;;;24.70;90.70;;;;;;4953659;29;20258;-86
2023/09/14 01:49:30;;;;;;;23.35;20.13;;;24.70;90.80;;;;;;4953734;29;20196;-85
2023/09/14 01:52:01;;;;;;;26.77;22.20;;;24.70;91.40;;;;;;4970732;28;20184;-85
2023/09/14 01:54:32;;;;;;;26.33;23.33;;;24.80;92.20;;;;;;4961329;29;20222;-85
2023/09/14 01:57:05;;;;;;;36.25;29.92;;;24.80;91.90;;;;;;4952556;29;20210;-86
2023/09/14 01:59:36;;;;;;;46.13;39.50;;;24.80;93.30;;;;;;4955887;29;20206;-84
2023/09/14 02:02:06;;;;;;;57.13;39.67;;;24.90;93.80;;;;;;4952162;29;20232;-85
2023/09/14 02:04:38;;;;;;;50.60;45.10;;;25.00;92.60;;;;;;4953223;29;20682;-86
2023/09/14 02:07:09;;;;;;;54.72;45.45;;;25.00;93.50;;;;;;4953094;28;20263;-86
2023/09/14 02:09:39;;;;;;;57.08;48.10;;;25.00;93.20;;;;;;4939583;29;20212;-85
2023/09/14 02:12:13;;;;;;;68.07;57.75;;;25.10;93.20;;;;;;4933914;29;20687;-85
2023/09/14 02:14:44;;;;;;;72.13;61.20;;;25.10;93.90;;;;;;4954294;28;20199;-86
2023/09/14 02:17:15;;;;;;;79.60;70.95;;;25.20;94.30;;;;;;4972275;28;20207;-85
2023/09/14 02:19:45;;;;;;;91.20;78.07;;;25.20;95.00;;;;;;4958089;28;20253;-85
2023/09/14 02:22:16;;;;;;;97.68;86.93;;;25.20;95.50;;;;;;4953308;28;20232;-85
2023/09/14 02:24:47;;;;;;;100.13;89.13;;;25.20;96.30;;;;;;4953123;29;20204;-85
2023/09/14 02:27:19;;;;;;;105.03;93.30;;;25.20;96.90;;;;;;4951537;29;20755;-85
2023/09/14 02:29:54;;;;;;;107.95;93.32;;;25.20;97.50;;;;;;4952948;29;20208;-85
2023/09/14 02:32:26;;;;;;;101.18;89.90;;;25.20;97.60;;;;;;4953239;29;20207;-85
2023/09/14 02:34:56;;;;;;;104.70;90.50;;;25.30;97.90;;;;;;4952979;29;20318;-85
2023/09/14 02:37:27;;;;;;;113.32;95.85;;;25.40;98.00;;;;;;4952444;29;20227;-84
2023/09/14 02:39:58;;;;;;;108.80;93.68;;;25.30;98.20;;;;;;4953371;29;20204;-85
2023/09/14 02:42:36;;;;;;;106.22;91.35;;;25.50;98.80;;;;;;4948158;29;20239;-85
2023/09/14 02:45:07;;;;;;;94.50;83.93;;;25.60;98.00;;;;;;4934557;29;20541;-84
2023/09/14 02:47:39;;;;;;;88.07;78.70;;;25.70;97.10;;;;;;4933509;29;20205;-84
2023/09/14 02:50:10;;;;;;;81.88;72.68;;;25.80;96.70;;;;;;4949910;29;20208;-84
2023/09/14 02:52:40;;;;;;;78.88;69.40;;;25.90;96.10;;;;;;4951989;29;20285;-84
2023/09/14 02:55:12;;;;;;;77.88;68.15;;;25.80;95.90;;;;;;4952614;29;20211;-84
2023/09/14 02:57:44;;;;;;;71.05;63.28;;;25.80;94.70;;;;;;4966811;28;20544;-84
2023/09/14 03:00:17;;;;;;;69.22;61.67;;;25.70;94.60;;;;;;4950126;29;20599;-84
2023/09/14 03:02:49;;;;;;;69.03;61.55;;;25.70;94.60;;;;;;4935430;29;20258;-85
2023/09/14 03:05:19;;;;;;;65.80;58.70;;;25.60;94.60;;;;;;4934081;29;20205;-84
2023/09/14 03:07:50;;;;;;;70.25;61.47;;;25.60;94.50;;;;;;4942597;28;20228;-85
2023/09/14 03:10:21;;;;;;;68.85;61.40;;;25.70;93.80;;;;;;4954425;29;20203;-85
2023/09/14 03:12:53;;;;;;;78.18;67.32;;;25.70;93.40;;;;;;4952128;29;20214;-84
2023/09/14 03:15:24;;;;;;;72.82;64.20;;;25.80;93.70;;;;;;4953331;29;20196;-85
2023/09/14 03:17:58;;;;;;;76.50;68.43;;;25.80;92.50;;;;;;4937580;29;20211;-85
2023/09/14 03:20:28;;;;;;;82.10;73.22;;;25.70;93.50;;;;;;4933253;29;20212;-85
2023/09/14 03:23:00;;;;;;;76.05;68.13;;;25.80;93.40;;;;;;4933401;29;20622;-85
2023/09/14 03:25:31;;;;;;;72.97;65.22;;;25.80;93.10;;;;;;4933458;29;20201;-83
2023/09/14 03:28:04;;;;;;;73.35;65.72;;;25.90;93.00;;;;;;4938771;29;20231;-84
2023/09/14 03:30:36;;;;;;;73.38;65.40;;;25.90;92.50;;;;;;4952507;29;20199;-84
2023/09/14 03:33:08;;;;;;;70.75;63.03;;;25.90;92.40;;;;;;4952008;29;20207;-84
2023/09/14 03:35:38;;;;;;;71.05;63.35;;;25.80;92.70;;;;;;4954567;28;20699;-84
2023/09/14 03:38:09;;;;;;;66.82;59.78;;;25.90;92.30;;;;;;4956441;29;20290;-85
2023/09/14 03:40:40;;;;;;;61.53;54.92;;;25.90;92.00;;;;;;4956246;29;20578;-85
2023/09/14 03:43:14;;;;;;;64.03;56.95;;;25.80;92.90;;;;;;4956153;29;20200;-85
2023/09/14 03:45:44;;;;;;;60.75;53.95;;;25.90;93.60;;;;;;4955225;29;20200;-84
2023/09/14 03:48:15;;;;;;;58.22;51.92;;;25.90;93.00;;;;;;4957664;29;20196;-83
2023/09/14 03:50:46;;;;;;;54.95;48.60;;;25.80;93.00;;;;;;4956069;29;20215;-85
2023/09/14 03:53:17;;;;;;;51.00;45.75;;;25.70;91.90;;;;;;4955791;29;20723;-85
2023/09/14 03:55:47;;;;;;;50.63;45.22;;;25.50;91.80;;;;;;4936538;29;20224;-84
2023/09/14 03:58:20;;;;;;;49.13;43.92;;;25.50;91.90;;;;;;4936633;29;20209;-84
2023/09/14 04:00:51;;;;;;;46.92;42.10;;;25.50;91.50;;;;;;4936920;29;20211;-85
2023/09/14 04:03:22;;;;;;;45.63;40.60;;;25.30;91.40;;;;;;4956858;29;20188;-85
2023/09/14 04:05:52;;;;;;;49.78;41.47;;;25.20;91.30;;;;;;4972389;29;20642;-84
2023/09/14 04:08:24;;;;;;;47.08;41.72;;;25.20;91.50;;;;;;4944653;28;20224;-84
2023/09/14 04:10:55;;;;;;;45.60;39.08;;;25.00;91.30;;;;;;4937041;29;20197;-83
2023/09/14 04:13:34;;;;;;;42.13;37.17;;;24.80;91.80;;;;;;4936730;29;20271;-85
2023/09/14 04:16:06;;;;;;;39.60;35.40;;;24.70;92.80;;;;;;4936655;29;20215;-84
2023/09/14 04:18:38;;;;;;;38.47;34.35;;;24.60;92.40;;;;;;4946573;28;20217;-85
2023/09/14 04:21:09;;;;;;;34.08;30.38;;;24.60;92.60;;;;;;4962632;28;20291;-84
2023/09/14 04:23:40;;;;;;;33.88;29.25;;;24.70;92.10;;;;;;4955359;29;20196;-84
2023/09/14 04:26:10;;;;;;;31.05;27.75;;;24.70;91.60;;;;;;4936673;29;20212;-83
2023/09/14 04:28:43;;;;;;;30.63;27.42;;;24.70;92.10;;;;;;4936152;29;20576;-84
2023/09/14 04:31:14;;;;;;;28.65;23.45;;;24.70;92.70;;;;;;4936057;29;20660;-84
2023/09/14 04:33:44;;;;;;;23.52;21.02;;;24.70;92.80;;;;;;4935819;29;20196;-84
2023/09/14 04:36:15;;;;;;;23.15;20.65;;;24.50;93.00;;;;;;4936097;29;20205;-84
2023/09/14 04:38:46;;;;;;;21.60;19.27;;;24.50;92.20;;;;;;4936090;29;20382;-84
2023/09/14 04:41:17;;;;;;;19.15;17.13;;;24.50;91.90;;;;;;4936431;29;20661;-84
2023/09/14 04:43:49;;;;;;;20.52;17.73;;;24.40;92.20;;;;;;4944127;29;20200;-84
2023/09/14 04:46:20;;;;;;;19.50;16.10;;;24.30;93.00;;;;;;4954853;28;20200;-85
2023/09/14 04:48:52;;;;;;;17.80;15.02;;;24.20;93.40;;;;;;4955318;29;20278;-85
2023/09/14 04:51:23;;;;;;;15.18;13.57;;;24.20;93.40;;;;;;4955881;29;20188;-85
2023/09/14 04:53:54;;;;;;;16.27;13.60;;;24.20;93.70;;;;;;4954950;29;20203;-85
2023/09/14 04:56:24;;;;;;;15.25;13.23;;;24.30;93.60;;;;;;4955350;29;20196;-85
2023/09/14 04:58:57;;;;;;;13.90;12.45;;;24.40;93.40;;;;;;4954790;29;20212;-85
2023/09/14 05:01:28;;;;;;;15.57;11.35;;;24.30;93.40;;;;;;4954042;29;20250;-85
2023/09/14 05:03:59;;;;;;;14.02;11.73;;;24.20;92.90;;;;;;4953641;29;20208;-86
2023/09/14 05:06:30;;;;;;;13.52;10.65;;;24.20;93.80;;;;;;4950310;29;20267;-86
2023/09/14 05:09:01;;;;;;;11.70;10.05;;;24.20;93.50;;;;;;4942166;29;20208;-87
2023/09/14 05:11:31;;;;;;;12.57;9.23;;;24.20;93.30;;;;;;4943837;29;20297;-87
2023/09/14 05:14:05;;;;;;;10.75;8.77;;;24.30;92.80;;;;;;4936113;29;20201;-87
2023/09/14 05:16:36;;;;;;;11.40;8.52;;;24.30;93.00;;;;;;4940423;29;20207;-83
2023/09/14 05:19:07;;;;;;;12.48;8.75;;;24.30;93.00;;;;;;4939205;29;20674;-83
2023/09/14 05:21:37;;;;;;;12.90;8.30;;;24.30;93.20;;;;;;4945229;29;20224;-83
2023/09/14 05:24:08;;;;;;;10.93;7.93;;;24.20;92.90;;;;;;4936194;29;20212;-81
2023/09/14 05:26:39;;;;;;;9.77;7.22;;;24.00;93.50;;;;;;4954258;29;20203;-82
2023/09/14 05:29:13;;;;;;;9.52;7.03;;;23.90;94.10;;;;;;4957295;29;20652;-83
2023/09/14 05:31:43;;;;;;;11.00;7.15;;;23.90;94.40;;;;;;4954651;29;20207;-82
2023/09/14 05:34:14;;;;;;;10.00;6.03;;;24.00;94.40;;;;;;4937620;29;20783;-82
2023/09/14 05:36:45;;;;;;;10.38;5.90;;;24.10;94.90;;;;;;4936896;29;20205;-82
2023/09/14 05:39:18;;;;;;;8.07;5.63;;;24.00;95.00;;;;;;4953140;29;20215;-80
2023/09/14 05:41:50;;;;;;;8.10;5.43;;;24.00;95.20;;;;;;4937444;29;20227;-81
2023/09/14 05:44:23;;;;;;;8.75;4.68;;;24.00;95.40;;;;;;4956434;29;20200;-83
2023/09/14 05:46:53;;;;;;;10.60;5.10;;;24.00;95.40;;;;;;4953341;29;20196;-82
2023/09/14 05:49:25;;;;;;;7.30;4.57;;;24.00;95.50;;;;;;4950712;29;20205;-81
2023/09/14 05:51:55;;;;;;;6.35;4.43;;;24.10;95.90;;;;;;4934661;29;20204;-82
2023/09/14 05:54:26;;;;;;;7.82;4.93;;;24.30;95.20;;;;;;4950196;29;20200;-81
2023/09/14 05:56:57;;;;;;;8.85;4.78;;;24.30;94.90;;;;;;4956074;28;20585;-83
2023/09/14 05:59:29;;;;;;;8.20;4.20;;;24.40;94.80;;;;;;4955226;29;20196;-81
2023/09/14 06:02:00;;;;;;;8.07;4.50;;;24.50;95.00;;;;;;4956765;29;20231;-82
2023/09/14 06:04:31;;;;;;;6.35;4.32;;;24.60;94.30;;;;;;4952869;29;20292;-82
2023/09/14 06:07:01;;;;;;;6.57;4.38;;;24.60;94.20;;;;;;4952771;28;20207;-83
2023/09/14 06:09:32;;;;;;;6.28;4.22;;;24.70;93.90;;;;;;4953286;29;20210;-80
2023/09/14 06:12:03;;;;;;;9.30;4.60;;;24.70;93.50;;;;;;4953901;29;20214;-82
2023/09/14 06:14:37;;;;;;;5.70;4.10;;;24.60;93.80;;;;;;4949060;29;20207;-82
2023/09/14 06:17:08;;;;;;;6.80;4.03;;;24.60;93.40;;;;;;4951257;29;20205;-82
2023/09/14 06:19:38;;;;;;;7.95;4.05;;;24.40;93.50;;;;;;4950110;28;20563;-82
2023/09/14 06:22:09;;;;;;;8.00;4.68;;;24.40;93.80;;;;;;4972623;28;20234;-82
2023/09/14 06:24:40;;;;;;;10.20;4.47;;;24.30;93.70;;;;;;4957043;28;20267;-82
2023/09/14 06:27:11;;;;;;;7.50;3.95;;;24.40;93.90;;;;;;4953268;29;20223;-83
2023/09/14 06:29:43;;;;;;;8.00;4.05;;;24.70;93.70;;;;;;4953037;29;20211;-82
2023/09/14 06:32:14;;;;;;;7.68;3.97;;;24.80;93.00;;;;;;4951288;29;20234;-82
2023/09/14 06:34:45;;;;;;;7.88;3.90;;;25.00;92.50;;;;;;4952987;29;20588;-83
2023/09/14 06:37:15;;;;;;;5.80;3.58;;;25.10;92.20;;;;;;4952974;29;20204;-82
2023/09/14 06:39:46;;;;;;;5.65;3.65;;;25.20;91.60;;;;;;4952879;29;20199;-81
2023/09/14 06:42:17;;;;;;;4.40;3.45;;;25.10;91.70;;;;;;4934803;29;20247;-83
2023/09/14 06:44:49;;;;;;;5.30;3.20;;;25.30;91.00;;;;;;4958788;29;20184;-81
2023/09/14 06:47:20;;;;;;;6.63;3.20;;;25.20;90.70;;;;;;4951996;29;20199;-83
2023/09/14 06:49:51;;;;;;;6.03;3.30;;;25.20;90.20;;;;;;4954667;29;20199;-83
2023/09/14 06:52:21;;;;;;;6.90;3.33;;;25.00;90.60;;;;;;4953074;29;20200;-82
2023/09/14 06:54:52;;;;;;;5.45;3.20;;;24.90;90.60;;;;;;4952602;29;20579;-83
2023/09/14 06:57:23;;;;;;;6.85;3.30;;;24.60;90.80;;;;;;4953677;29;20200;-82
2023/09/14 06:59:56;;;;;;;6.20;3.35;;;24.10;92.00;;;;;;4951461;29;20222;-82
2023/09/14 07:02:26;;;;;;;4.40;3.30;;;23.90;92.10;;;;;;4953268;29;20282;-82
2023/09/14 07:04:59;;;;;;;4.05;2.90;;;23.70;92.30;;;;;;4955138;29;20203;-83
2023/09/14 07:07:30;;;;;;;5.25;3.05;;;23.50;92.00;;;;;;4952904;29;20327;-84
2023/09/14 07:10:00;;;;;;;7.85;3.20;;;23.40;92.20;;;;;;4953034;29;20576;-83
2023/09/14 07:12:33;;;;;;;4.72;2.90;;;23.20;91.80;;;;;;4954619;29;20211;-84
2023/09/14 07:15:07;;;;;;;6.35;3.08;;;23.00;91.60;;;;;;4952800;29;20664;-83
2023/09/14 07:17:37;;;;;;;4.57;3.20;;;22.80;92.60;;;;;;4954034;29;20192;-82
2023/09/14 07:20:09;;;;;;;5.03;2.80;;;22.60;93.20;;;;;;4958806;29;20196;-82
2023/09/14 07:22:40;;;;;;;5.63;2.88;;;22.60;93.70;;;;;;4960921;28;20224;-83
2023/09/14 07:25:11;;;;;;;5.03;2.80;;;22.40;94.00;;;;;;4942428;29;20283;-83
2023/09/14 07:27:42;;;;;;;3.72;2.53;;;22.20;94.40;;;;;;4944520;29;20210;-84
2023/09/14 07:30:15;;;;;;;3.63;2.53;;;22.10;94.90;;;;;;4950496;29;20280;-83
2023/09/14 07:32:46;;;;;;;5.60;2.42;;;22.00;95.10;;;;;;4944371;29;20207;-83
2023/09/14 07:35:17;;;;;;;3.38;2.70;;;21.90;95.80;;;;;;4954779;29;20231;-83
2023/09/14 07:37:47;;;;;;;5.97;2.97;;;21.80;96.10;;;;;;4935716;29;20249;-84
2023/09/14 07:40:18;;;;;;;4.60;3.08;;;21.70;96.30;;;;;;4933825;29;20207;-83
2023/09/14 07:42:49;;;;;;;4.97;2.58;;;21.60;96.90;;;;;;4942279;29;20232;-85
2023/09/14 07:45:22;;;;;;;4.72;3.08;;;21.60;97.20;;;;;;4951305;29;20404;-83
2023/09/14 07:47:53;;;;;;;3.15;2.50;;;21.50;97.70;;;;;;4947648;29;20193;-82
2023/09/14 07:50:23;;;;;;;3.40;2.53;;;21.40;97.90;;;;;;4948413;29;20200;-83
2023/09/14 07:52:54;;;;;;;6.80;2.90;;;21.40;98.20;;;;;;4939423;29;20204;-83
2023/09/14 07:55:26;;;;;;;5.90;3.00;;;21.30;98.70;;;;;;4943664;29;20657;-83
2023/09/14 07:57:56;;;;;;;4.13;2.67;;;21.10;99.70;;;;;;4950046;29;20196;-85
2023/09/14 08:00:29;;;;;;;4.50;3.03;;;21.10;99.90;;;;;;4936950;28;20216;-82
2023/09/14 08:03:00;;;;;;;4.93;2.97;;;21.10;99.90;;;;;;4944027;29;20310;-82
2023/09/14 08:05:31;;;;;;;2.88;2.55;;;21.00;99.90;;;;;;4933970;29;20200;-81
2023/09/14 08:08:04;;;;;;;5.28;3.20;;;20.90;99.90;;;;;;4933141;29;20201;-81
2023/09/14 08:10:34;;;;;;;3.72;2.90;;;20.80;99.90;;;;;;4933157;29;20228;-82
2023/09/14 08:13:05;;;;;;;4.43;3.00;;;20.80;99.90;;;;;;4933326;29;20200;-82
2023/09/14 08:15:38;;;;;;;4.38;3.10;;;20.70;99.90;;;;;;4950391;29;20205;-82
2023/09/14 08:18:09;;;;;;;5.43;3.55;;;20.70;99.90;;;;;;4952051;29;20211;-81
2023/09/14 08:20:42;;;;;;;4.93;3.60;;;20.60;99.90;;;;;;4952742;28;20196;-82
2023/09/14 08:23:15;;;;;;;10.13;3.42;;;20.50;99.90;;;;;;4956708;29;20224;-81
2023/09/14 08:25:46;;;;;;;4.90;3.00;;;20.50;99.90;;;;;;4957028;29;20204;-82
2023/09/14 08:28:17;;;;;;;7.45;3.25;;;20.40;99.90;;;;;;4972064;29;20198;-81
2023/09/14 08:30:50;;;;;;;7.22;3.22;;;20.40;99.90;;;;;;4958658;29;20200;-81
2023/09/14 08:33:21;;;;;;;4.28;3.13;;;20.30;99.90;;;;;;4955785;29;20204;-81
2023/09/14 08:35:53;;;;;;;4.80;3.28;;;20.30;99.90;;;;;;4954990;29;20243;-81
2023/09/14 08:38:25;;;;;;;4.63;3.33;;;20.30;99.90;;;;;;4955377;29;20287;-82
2023/09/14 08:40:58;;;;;;;6.07;3.45;;;20.30;99.90;;;;;;4954973;29;20222;-81
2023/09/14 08:43:30;;;;;;;5.82;3.30;;;20.20;99.90;;;;;;4954964;29;20227;-82
2023/09/14 08:46:04;;;;;;;6.60;3.22;;;20.20;99.90;;;;;;4954861;29;20208;-82
2023/09/14 08:48:39;;;;;;;9.05;3.60;;;20.20;99.90;;;;;;4955450;29;20203;-81
2023/09/14 08:51:11;;;;;;;5.78;3.20;;;20.10;99.90;;;;;;4955480;29;20250;-82
2023/09/14 08:53:43;;;;;;;7.03;3.28;;;20.20;99.90;;;;;;4954869;29;20572;-81
2023/09/14 08:56:16;;;;;;;5.50;3.05;;;20.10;99.90;;;;;;4952774;29;20216;-81
2023/09/14 08:58:51;;;;;;;3.92;3.13;;;20.10;99.90;;;;;;4936089;29;20201;-82
2023/09/14 09:01:24;;;;;;;4.07;3.25;;;20.10;99.90;;;;;;4935975;29;20220;-81
2023/09/14 09:03:55;;;;;;;5.88;2.90;;;20.00;99.90;;;;;;4946156;29;20234;-82
2023/09/14 09:06:26;;;;;;;5.78;3.55;;;20.00;99.90;;;;;;4955364;29;20196;-81
2023/09/14 09:08:58;;;;;;;8.27;3.30;;;19.90;99.90;;;;;;4955095;28;20220;-81
2023/09/14 09:11:30;;;;;;;7.68;3.63;;;19.80;99.90;;;;;;4955277;29;20202;-81
2023/09/14 09:14:01;;;;;;;4.90;3.28;;;19.80;99.90;;;;;;4946452;29;20575;-81
2023/09/14 09:16:34;;;;;;;6.60;3.40;;;19.80;99.90;;;;;;4935872;29;20680;-80
2023/09/14 09:19:06;;;;;;;7.55;3.50;;;19.80;99.90;;;;;;4945865;29;20196;-81
2023/09/14 09:21:37;;;;;;;5.93;3.40;;;19.80;99.90;;;;;;4955038;29;20211;-81
2023/09/14 09:24:10;;;;;;;7.15;3.10;;;19.80;99.90;;;;;;4954472;29;20247;-80
2023/09/14 09:26:41;;;;;;;6.68;3.30;;;19.80;99.90;;;;;;4954509;29;20246;-80
2023/09/14 09:29:19;;;;;;;6.65;4.28;;;19.80;99.90;;;;;;4954626;29;20223;-80
2023/09/14 09:31:52;;;;;;;6.40;3.60;;;19.80;99.90;;;;;;4954378;28;20230;-81
2023/09/14 09:34:25;;;;;;;4.72;3.40;;;19.80;99.90;;;;;;4974574;28;20220;-81
2023/09/14 09:37:00;;;;;;;5.25;3.53;;;19.70;99.90;;;;;;4964003;28;20216;-81
2023/09/14 09:39:37;;;;;;;6.65;3.58;;;19.70;99.90;;;;;;4954319;29;20219;-81
2023/09/14 09:42:09;;;;;;;4.55;2.80;;;19.70;99.90;;;;;;4954555;29;20654;-81
2023/09/14 09:44:41;;;;;;;5.18;3.13;;;19.70;99.90;;;;;;4954023;29;20582;-81
2023/09/14 09:47:16;;;;;;;4.00;2.70;;;19.70;99.90;;;;;;4953468;29;20196;-81
2023/09/14 09:49:48;;;;;;;5.35;2.70;;;19.70;99.90;;;;;;4954271;29;20563;-81
2023/09/14 09:52:19;;;;;;;4.53;2.80;;;19.70;99.90;;;;;;4952876;29;20199;-81
2023/09/14 09:54:50;;;;;;;4.13;2.38;;;19.70;99.90;;;;;;4954076;29;20215;-81
2023/09/14 09:57:23;;;;;;;5.00;2.50;;;19.60;99.90;;;;;;4954180;29;20208;-81
2023/09/14 09:59:53;;;;;;;4.80;2.97;;;19.60;99.90;;;;;;4954319;29;20204;-81
2023/09/14 10:02:34;;;;;;;6.25;2.38;;;19.60;99.90;;;;;;4954089;29;20566;-81
2023/09/14 10:05:05;;;;;;;5.07;2.30;;;19.50;99.90;;;;;;4957861;29;20231;-81
2023/09/14 10:07:41;;;;;;;7.15;2.60;;;19.50;99.90;;;;;;4956243;29;20203;-81
2023/09/14 10:10:13;;;;;;;6.30;2.90;;;19.50;99.90;;;;;;4936963;29;20232;-81
2023/09/14 10:12:44;;;;;;;4.18;2.22;;;19.50;99.90;;;;;;4936834;29;20211;-80
2023/09/14 10:15:15;;;;;;;6.35;2.60;;;19.50;99.90;;;;;;4936618;29;20209;-81
2023/09/14 10:17:53;;;;;;;4.38;2.15;;;19.50;99.90;;;;;;4936854;29;20688;-81
2023/09/14 10:20:24;;;;;;;4.63;2.20;;;19.40;99.90;;;;;;4937443;29;20201;-81
2023/09/14 10:22:56;;;;;;;3.13;2.45;;;19.50;99.90;;;;;;4936778;29;20201;-81
2023/09/14 10:25:27;;;;;;;3.03;2.17;;;19.50;99.90;;;;;;4955130;29;20200;-81
2023/09/14 10:28:01;;;;;;;3.13;2.13;;;19.40;99.90;;;;;;4938314;29;20227;-81
2023/09/14 10:30:32;;;;;;;4.80;1.92;;;19.40;99.90;;;;;;4954724;29;20207;-81
2023/09/14 10:33:06;;;;;;;1.85;1.67;;;19.40;99.90;;;;;;4955157;29;20200;-81
2023/09/14 10:35:38;;;;;;;5.25;2.40;;;19.40;99.90;;;;;;4955852;29;20236;-81
2023/09/14 10:38:09;;;;;;;5.45;2.42;;;19.40;99.90;;;;;;4957384;29;20204;-80
2023/09/14 10:40:40;;;;;;;6.35;2.25;;;19.40;99.90;;;;;;4971876;29;20210;-79
2023/09/14 10:43:11;;;;;;;2.95;1.90;;;19.40;99.90;;;;;;4955599;28;20242;-81
2023/09/14 10:45:46;;;;;;;5.10;1.80;;;19.40;99.90;;;;;;4954821;29;20204;-81
2023/09/14 10:48:22;;;;;;;2.60;1.80;;;19.40;99.90;;;;;;4954400;29;20300;-82
2023/09/14 10:50:53;;;;;;;2.45;1.80;;;19.40;99.90;;;;;;4953419;29;20203;-82
2023/09/14 10:53:26;;;;;;;2.88;1.88;;;19.40;99.90;;;;;;4953523;29;20212;-81
2023/09/14 10:55:57;;;;;;;2.80;1.90;;;19.40;99.90;;;;;;4945626;29;20209;-82
2023/09/14 10:58:28;;;;;;;2.65;1.92;;;19.40;99.90;;;;;;4947584;29;20200;-81
2023/09/14 11:01:03;;;;;;;3.25;1.60;;;19.50;99.90;;;;;;4954768;29;20214;-80
2023/09/14 11:04:13;;;;;;;3.15;1.75;;;19.50;99.90;;;;;;4959151;29;20227;-81
2023/09/14 11:06:54;;;;;;;4.70;1.90;;;19.50;99.90;;;;;;4954236;29;20260;-81
2023/09/14 11:09:25;;;;;;;2.67;1.90;;;19.50;99.90;;;;;;4954089;29;20596;-81
2023/09/14 11:11:56;;;;;;;4.03;2.20;;;19.50;99.90;;;;;;4955752;29;20184;-80
2023/09/14 11:14:30;;;;;;;4.43;1.70;;;19.50;99.90;;;;;;4951275;29;20196;-81
2023/09/14 11:17:01;;;;;;;3.97;1.70;;;19.40;99.90;;;;;;4955001;29;20207;-81
2023/09/14 11:19:52;;;;;;;3.90;1.90;;;19.40;99.90;;;;;;4954443;29;20215;-81
2023/09/14 11:22:28;;;;;;;4.85;1.85;;;19.40;99.90;;;;;;4954661;29;20227;-81
2023/09/14 11:24:59;;;;;;;2.65;1.60;;;19.40;99.90;;;;;;4954736;29;20278;-81
2023/09/14 11:27:34;;;;;;;2.28;1.65;;;19.40;99.90;;;;;;4956541;29;20283;-81
2023/09/14 11:30:16;;;;;;;3.53;1.90;;;19.40;99.90;;;;;;4945997;29;20255;-82
2023/09/14 11:32:49;;;;;;;2.65;1.80;;;19.40;99.90;;;;;;4955886;29;20204;-81
2023/09/14 11:35:34;;;;;;;3.47;1.80;;;19.40;99.90;;;;;;4954406;29;20232;-80
2023/09/14 11:38:06;;;;;;;2.53;1.65;;;19.40;99.90;;;;;;4954255;29;20210;-81
2023/09/14 11:40:37;;;;;;;5.60;2.22;;;19.40;99.90;;;;;;4955276;29;20206;-81
2023/09/14 11:43:28;;;;;;;3.50;1.58;;;19.40;99.90;;;;;;4954680;29;20617;-80
2023/09/14 11:46:03;;;;;;;2.28;1.67;;;19.40;99.90;;;;;;4965904;29;20192;-81
2023/09/14 11:48:38;;;;;;;4.25;1.90;;;19.30;99.90;;;;;;4945298;29;20256;-81
2023/09/14 11:51:12;;;;;;;4.97;2.00;;;19.30;99.90;;;;;;4941371;29;20200;-81
2023/09/14 11:53:44;;;;;;;3.10;2.10;;;19.30;99.90;;;;;;4950824;29;20668;-84
2023/09/14 11:56:19;;;;;;;1.88;1.60;;;19.30;99.90;;;;;;4957923;28;20204;-83
2023/09/14 11:58:50;;;;;;;2.75;1.70;;;19.20;99.90;;;;;;4967761;29;20200;-82
2023/09/14 12:01:20;;;;;;;3.42;2.00;;;19.20;99.90;;;;;;4949998;29;20201;-82
2023/09/14 12:04:03;;;;;;;4.03;2.08;;;19.20;99.90;;;;;;4945289;29;20235;-83
2023/09/14 12:06:40;;;;;;;3.55;1.88;;;19.20;99.90;;;;;;4966101;28;20201;-87
2023/09/14 12:09:15;;;;;;;5.63;2.22;;;19.20;99.90;;;;;;4964340;28;20283;-82
2023/09/14 12:11:56;;;;;;;3.85;2.08;;;19.10;99.90;;;;;;4958598;29;20306;-82
2023/09/14 12:14:38;;;;;;;2.33;1.88;;;19.10;99.90;;;;;;4941770;29;20201;-82
2023/09/14 12:17:22;;;;;;;3.30;1.90;;;19.10;99.90;;;;;;4939122;29;20632;-81
2023/09/14 12:19:55;;;;;;;5.82;2.60;;;19.00;99.90;;;;;;4946952;29;20203;-82
2023/09/14 12:22:29;;;;;;;4.80;2.55;;;19.00;99.90;;;;;;4943817;29;20219;-81
2023/09/14 12:25:06;;;;;;;4.15;3.10;;;18.90;99.90;;;;;;4960063;29;20215;-82
2023/09/14 12:27:37;;;;;;;3.92;2.75;;;19.00;99.90;;;;;;4959080;29;20632;-82
2023/09/14 12:30:10;;;;;;;3.60;2.50;;;19.00;99.90;;;;;;4943394;29;20200;-83
2023/09/14 12:32:43;;;;;;;3.30;2.58;;;18.90;99.90;;;;;;4944539;29;20201;-81
2023/09/14 12:35:16;;;;;;;4.68;2.60;;;18.90;99.90;;;;;;4945983;29;20224;-82
2023/09/14 12:37:49;;;;;;;3.13;2.35;;;18.90;99.90;;;;;;4950575;29;20201;-82
2023/09/14 12:40:21;;;;;;;4.80;3.47;;;18.80;99.90;;;;;;4940213;29;20283;-81
2023/09/14 12:42:52;;;;;;;5.97;3.60;;;18.80;99.90;;;;;;4951422;29;20192;-81
2023/09/14 12:45:25;;;;;;;4.63;3.47;;;18.80;99.90;;;;;;4958635;29;20228;-82
2023/09/14 12:47:56;;;;;;;4.32;3.60;;;18.70;99.90;;;;;;4959366;29;20203;-83
2023/09/14 12:50:31;;;;;;;5.55;3.92;;;18.60;99.90;;;;;;4964587;29;20184;-83
2023/09/14 12:53:11;;;;;;;5.38;3.83;;;18.60;99.90;;;;;;4968452;28;20208;-81
2023/09/14 12:55:47;;;;;;;5.95;3.67;;;18.60;99.90;;;;;;4953280;29;20290;-82
2023/09/14 12:58:23;;;;;;;4.93;3.83;;;18.50;99.90;;;;;;4959456;29;20698;-82
2023/09/14 13:00:55;;;;;;;5.15;3.90;;;18.50;99.90;;;;;;4953181;29;20197;-80
2023/09/14 13:03:25;;;;;;;4.82;4.00;;;18.50;99.90;;;;;;4938511;29;20207;-81
2023/09/14 13:05:58;;;;;;;6.45;4.35;;;18.50;99.90;;;;;;4938707;29;20232;-83